Terminal Aerodrome Forecast
Issued by NWS

Current Version | Previous Version | Text Only | Print | Product List | Glossary On
Versions: 1 2 3 4 5 6 7 8 9 10 11 12 13 14 15 16 17 18 19 20 21 22 23 24 25 26 27 28 29 30 31 32 33 34 35 36 37 38 39 40 41 42 43 44
000 FTUS41 KBOX 221720 TAFHYA TAF KHYA 221720Z 2218/2318 20009KT P6SM FEW250 FM230300 23012G19KT P6SM FEW090 FM231000 22008KT 5SM BR SKC FM231200 22012KT P6SM SKC FM231700 21016G22KT P6SM SKC=

USA.gov is the U.S. government's official web portal to all federal, state and local government web resources and services.